Time;durP1;ratioP1;P1;durP2;ratioP2;P2;SDS_P1;SDS_P2;PMS_P1;PMS_P2;Temp;Humidity;BMP_temperature;BMP_pressure;BME280_temperature;BME280_humidity;BME280_pressure;Samples;Min_cycle;Max_cycle;Signal;HPM_P1;HPM_P2
2023/10/22 00:02:18;;;;;;;7.68;0.90;;;;;;;13.29;82.19;99607.47;4985287;28;20500;-66
2023/10/22 00:04:44;;;;;;;2.47;0.70;;;;;;;13.24;81.92;99609.84;4988845;28;20044;-66
2023/10/22 00:07:10;;;;;;;6.75;0.60;;;;;;;13.31;81.55;99620.31;4980956;28;20045;-65
2023/10/22 00:09:35;;;;;;;2.50;0.55;;;;;;;13.25;82.60;99619.28;4998790;28;20038;-65
2023/10/22 00:12:01;;;;;;;3.25;0.75;;;;;;;13.28;82.46;99618.88;5003458;28;20057;-66
2023/10/22 00:14:26;;;;;;;1.73;0.40;;;;;;;13.28;82.36;99624.09;5001178;28;20044;-66
2023/10/22 00:16:52;;;;;;;4.80;0.70;;;;;;;13.29;82.81;99623.06;4985590;28;20604;-66
2023/10/22 00:19:18;;;;;;;4.50;0.52;;;;;;;13.25;82.93;99632.28;4997268;28;20033;-66
2023/10/22 00:21:46;;;;;;;3.25;1.05;;;;;;;13.28;83.31;99616.28;4979848;28;20037;-65
2023/10/22 00:24:11;;;;;;;3.80;0.70;;;;;;;13.27;83.14;99632.09;5006981;23;20046;-66
2023/10/22 00:26:37;;;;;;;3.17;0.80;;;;;;;13.32;82.41;99633.13;4981388;28;20415;-65
2023/10/22 00:29:02;;;;;;;4.40;0.40;;;;;;;13.20;83.24;99627.72;4981322;28;20039;-65
2023/10/22 00:31:28;;;;;;;4.90;0.57;;;;;;;13.28;83.36;99644.09;4995766;28;20623;-66
2023/10/22 00:33:54;;;;;;;3.92;0.55;;;;;;;13.23;82.96;99639.50;4983520;28;20042;-65
2023/10/22 00:36:20;;;;;;;2.88;0.75;;;;;;;13.18;83.81;99644.50;4988074;28;20038;-65
2023/10/22 00:38:45;;;;;;;7.63;0.70;;;;;;;13.22;83.98;99650.91;4987035;28;20045;-66
2023/10/22 00:41:11;;;;;;;5.32;1.13;;;;;;;13.24;83.35;99651.50;4989389;28;20025;-65
2023/10/22 00:43:36;;;;;;;6.90;0.95;;;;;;;13.16;84.71;99652.50;4992182;28;20037;-65
2023/10/22 00:46:02;;;;;;;2.47;0.52;;;;;;;13.28;83.50;99657.94;4988084;28;20042;-66
2023/10/22 00:48:28;;;;;;;6.43;0.65;;;;;;;13.20;84.14;99663.31;4989544;28;20072;-65
2023/10/22 00:50:54;;;;;;;5.45;0.70;;;;;;;13.12;85.40;99668.75;5005161;28;20030;-66
2023/10/22 00:53:20;;;;;;;1.90;0.40;;;;;;;13.23;85.40;99668.13;5003683;28;20046;-66
2023/10/22 00:55:46;;;;;;;3.78;0.70;;;;;;;13.20;84.90;99666.75;5000920;28;20121;-66
2023/10/22 00:58:16;;;;;;;3.42;0.63;;;;;;;13.13;85.89;99672.94;4988303;28;20034;-66
2023/10/22 01:00:43;;;;;;;2.17;0.45;;;;;;;13.14;85.84;99658.94;5006475;28;20026;-66
2023/10/22 01:03:09;;;;;;;0.88;0.30;;;;;;;13.19;85.80;99659.13;4987669;28;20046;-65
2023/10/22 01:05:39;;;;;;;3.75;0.63;;;;;;;13.21;85.43;99672.75;4988176;28;20041;-66
2023/10/22 01:08:05;;;;;;;5.38;0.73;;;;;;;13.22;85.49;99664.75;4986360;28;20105;-66
2023/10/22 01:10:31;;;;;;;6.18;0.60;;;;;;;13.14;85.90;99674.53;4987825;28;20034;-66
2023/10/22 01:12:58;;;;;;;5.30;0.60;;;;;;;13.13;86.89;99670.31;4988495;28;20048;-66
2023/10/22 01:15:23;;;;;;;4.88;0.60;;;;;;;13.10;86.80;99663.72;4988312;28;20038;-66
2023/10/22 01:17:49;;;;;;;4.68;0.70;;;;;;;13.19;86.94;99675.53;4985321;28;20041;-66
2023/10/22 01:20:15;;;;;;;2.22;0.40;;;;;;;13.27;86.70;99674.53;4988162;28;20061;-66
2023/10/22 01:22:41;;;;;;;3.03;0.40;;;;;;;13.13;89.14;99675.53;5002848;28;20415;-66
2023/10/22 01:25:07;;;;;;;3.85;0.73;;;;;;;13.04;91.24;99680.16;4984742;28;20041;-65
2023/10/22 01:27:33;;;;;;;4.55;0.88;;;;;;;12.99;91.79;99682.53;4984740;28;21104;-66
2023/10/22 01:29:58;;;;;;;1.67;0.40;;;;;;;12.92;93.52;99679.94;4988981;28;20547;-65
2023/10/22 01:32:24;;;;;;;3.40;0.40;;;;;;;12.93;94.15;99678.13;5001639;28;20052;-66
2023/10/22 01:34:49;;;;;;;5.20;0.40;;;;;;;12.96;93.02;99682.94;4987529;28;20037;-65
2023/10/22 01:37:15;;;;;;;5.28;0.70;;;;;;;12.90;93.25;99688.94;4984626;28;20045;-65
2023/10/22 01:39:41;;;;;;;3.67;0.50;;;;;;;12.89;93.76;99688.13;4988232;28;20030;-66
2023/10/22 01:42:08;;;;;;;5.25;0.60;;;;;;;12.95;93.80;99681.34;5003522;28;20037;-65
2023/10/22 01:44:35;;;;;;;2.13;0.45;;;;;;;13.01;92.48;99690.94;4987108;28;20052;-66
2023/10/22 01:47:00;;;;;;;0.73;0.40;;;;;;;12.90;92.59;99692.31;4984229;28;20563;-65
2023/10/22 01:49:26;;;;;;;2.72;0.82;;;;;;;12.94;92.50;99683.16;4987322;28;20022;-66
2023/10/22 01:51:52;;;;;;;3.25;0.60;;;;;;;12.94;92.01;99693.56;5006750;28;20049;-65
2023/10/22 01:54:17;;;;;;;2.40;0.50;;;;;;;12.90;92.88;99701.94;4986103;28;20113;-66
2023/10/22 01:56:44;;;;;;;2.78;0.50;;;;;;;13.01;92.36;99696.94;4986458;28;20088;-66
2023/10/22 01:59:09;;;;;;;1.55;0.40;;;;;;;12.95;91.81;99704.75;4985021;28;20387;-66
2023/10/22 02:01:35;;;;;;;4.30;0.85;;;;;;;12.96;91.63;99717.56;4998707;28;20041;-65
2023/10/22 02:04:01;;;;;;;4.15;0.57;;;;;;;12.95;91.42;99697.75;4968801;28;20049;-66
2023/10/22 02:06:27;;;;;;;3.50;0.63;;;;;;;12.89;92.40;99708.94;5004046;28;20033;-65
2023/10/22 02:08:52;;;;;;;2.65;0.38;;;;;;;12.84;92.33;99712.13;4970435;28;20551;-66
2023/10/22 02:11:19;;;;;;;2.53;0.50;;;;;;;12.88;91.99;99715.13;4987074;28;20041;-65
2023/10/22 02:13:44;;;;;;;6.55;0.93;;;;;;;12.93;91.83;99707.56;4985529;28;20458;-66
2023/10/22 02:16:10;;;;;;;2.75;0.32;;;;;;;12.88;91.77;99717.75;4987630;28;20038;-65
2023/10/22 02:18:35;;;;;;;2.83;0.40;;;;;;;12.83;92.14;99710.53;4985305;28;20062;-65
2023/10/22 02:21:03;;;;;;;2.88;0.50;;;;;;;12.80;92.16;99707.53;5000836;28;20034;-67
2023/10/22 02:23:28;;;;;;;1.90;0.38;;;;;;;12.86;92.66;99722.34;4983948;28;20129;-65
2023/10/22 02:25:54;;;;;;;1.02;0.40;;;;;;;12.84;92.41;99727.72;4987660;28;20029;-65
2023/10/22 02:28:19;;;;;;;2.50;0.32;;;;;;;12.76;93.54;99727.91;4999865;28;20038;-66
2023/10/22 02:30:47;;;;;;;0.90;0.40;;;;;;;12.74;93.77;99739.53;4986884;28;20037;-65
2023/10/22 02:33:13;;;;;;;4.07;0.50;;;;;;;12.76;94.57;99738.31;4997193;28;20063;-65
2023/10/22 02:35:44;;;;;;;1.88;0.40;;;;;;;12.80;94.43;99731.72;4987118;28;20124;-65
2023/10/22 02:38:15;;;;;;;1.20;0.50;;;;;;;12.68;95.38;99735.09;4984790;28;20038;-66
2023/10/22 02:40:41;;;;;;;1.80;0.40;;;;;;;12.69;96.28;99745.31;4971607;28;20026;-66
2023/10/22 02:43:06;;;;;;;4.65;0.65;;;;;;;12.70;96.67;99748.72;4984918;28;20519;-65
2023/10/22 02:45:32;;;;;;;2.28;0.38;;;;;;;12.61;97.19;99748.88;4984760;28;20026;-65
2023/10/22 02:47:59;;;;;;;0.80;0.50;;;;;;;12.60;97.17;99752.50;4984363;28;20103;-66
2023/10/22 02:50:25;;;;;;;3.65;0.65;;;;;;;12.52;98.75;99755.25;4968852;28;20037;-65
2023/10/22 02:52:51;;;;;;;4.40;0.40;;;;;;;12.54;99.70;99760.25;4985540;28;20197;-66
2023/10/22 02:55:17;;;;;;;3.85;0.63;;;;;;;12.55;100.00;99770.47;5002687;28;20431;-66
2023/10/22 02:57:43;;;;;;;2.67;0.40;;;;;;;12.46;100.00;99774.22;4969162;28;20120;-66
2023/10/22 03:00:10;;;;;;;1.85;0.40;;;;;;;12.43;100.00;99778.03;4970884;28;20181;-66
2023/10/22 03:02:42;;;;;;;0.77;0.22;;;;;;;12.43;100.00;99782.41;4983187;28;20038;-66
2023/10/22 03:05:07;;;;;;;0.68;0.30;;;;;;;12.33;100.00;99776.75;4986254;28;20113;-66
2023/10/22 03:07:33;;;;;;;1.65;0.30;;;;;;;12.34;100.00;99791.34;4969467;28;20042;-65
2023/10/22 03:09:59;;;;;;;3.25;0.60;;;;;;;12.33;100.00;99794.94;4970782;28;20033;-65
2023/10/22 03:12:25;;;;;;;0.55;0.30;;;;;;;12.34;100.00;99789.56;4986422;28;20041;-65
2023/10/22 03:14:52;;;;;;;1.65;0.32;;;;;;;12.33;100.00;99802.75;4983642;28;20052;-65
2023/10/22 03:17:18;;;;;;;4.18;0.30;;;;;;;12.37;100.00;99799.56;4986278;28;20073;-65
2023/10/22 03:19:43;;;;;;;0.57;0.40;;;;;;;12.27;100.00;99805.13;4989182;28;20030;-66
2023/10/22 03:22:09;;;;;;;1.10;0.40;;;;;;;12.23;100.00;99803.09;4987560;28;20057;-66
2023/10/22 03:24:34;;;;;;;1.00;0.30;;;;;;;12.21;100.00;99811.09;4989684;28;20508;-66
2023/10/22 03:27:00;;;;;;;2.38;0.50;;;;;;;12.27;100.00;99810.31;4988137;28;20084;-66
2023/10/22 03:29:26;;;;;;;0.70;0.40;;;;;;;12.18;100.00;99821.06;4988173;28;20052;-65
2023/10/22 03:31:52;;;;;;;0.80;0.30;;;;;;;12.20;100.00;99816.47;4986265;28;20041;-65
2023/10/22 03:34:19;;;;;;;2.75;0.52;;;;;;;12.13;100.00;99813.00;4973091;28;20041;-66
2023/10/22 03:36:45;;;;;;;1.58;0.38;;;;;;;12.11;100.00;99813.22;4989600;28;20030;-66
2023/10/22 03:39:13;;;;;;;2.47;0.30;;;;;;;12.14;100.00;99831.03;5001964;28;20038;-65
2023/10/22 03:41:39;;;;;;;1.35;0.30;;;;;;;12.10;100.00;99834.19;5006136;28;20126;-66
2023/10/22 03:44:04;;;;;;;1.92;0.93;;;;;;;12.10;100.00;99829.81;5004188;28;20045;-66
2023/10/22 03:46:30;;;;;;;2.90;0.55;;;;;;;12.09;100.00;99841.16;4994981;28;20104;-66
2023/10/22 03:48:57;;;;;;;2.70;0.60;;;;;;;12.06;100.00;99844.16;4988737;28;20510;-66
2023/10/22 03:51:23;;;;;;;1.42;0.35;;;;;;;12.14;100.00;99846.63;4976243;28;20042;-66
2023/10/22 03:53:49;;;;;;;2.63;0.40;;;;;;;12.19;100.00;99840.88;4986397;28;20468;-66
2023/10/22 03:56:14;;;;;;;1.38;0.35;;;;;;;12.10;100.00;99848.00;4989270;28;20043;-66
2023/10/22 03:58:40;;;;;;;4.28;0.40;;;;;;;12.21;100.00;99844.06;5006581;28;20412;-65
2023/10/22 04:01:06;;;;;;;1.88;0.47;;;;;;;12.11;100.00;99857.41;5004798;28;20026;-66
2023/10/22 04:03:31;;;;;;;0.98;0.50;;;;;;;12.06;100.00;99870.16;5001150;28;20065;-66
2023/10/22 04:05:57;;;;;;;0.70;0.30;;;;;;;12.16;100.00;99878.41;5003393;28;20045;-66
2023/10/22 04:08:23;;;;;;;3.13;0.38;;;;;;;12.34;100.00;99885.75;4989595;28;20495;-65
2023/10/22 04:10:49;;;;;;;1.00;0.30;;;;;;;12.16;100.00;99888.81;5006365;28;20030;-66
2023/10/22 04:13:14;;;;;;;2.88;0.85;;;;;;;12.18;100.00;99881.63;4987261;28;20120;-66
2023/10/22 04:15:40;;;;;;;3.22;0.40;;;;;;;12.27;100.00;99884.91;4988760;28;20031;-66
2023/10/22 04:18:05;;;;;;;6.05;0.50;;;;;;;12.22;100.00;99887.25;4985884;28;20057;-66
2023/10/22 04:20:34;;;;;;;0.93;0.30;;;;;;;12.17;100.00;99897.44;4999970;28;20116;-65
2023/10/22 04:22:59;;;;;;;2.83;0.50;;;;;;;12.24;100.00;99880.06;4987075;28;20124;-66
2023/10/22 04:25:26;;;;;;;0.95;0.20;;;;;;;12.19;100.00;99896.22;5004117;28;20122;-65
2023/10/22 04:27:51;;;;;;;1.15;0.20;;;;;;;12.31;100.00;99900.91;4987086;28;20368;-65
2023/10/22 04:30:17;;;;;;;1.13;0.22;;;;;;;12.22;100.00;99900.25;5004999;28;20095;-66
2023/10/22 04:32:42;;;;;;;0.88;0.30;;;;;;;12.13;100.00;99903.97;4985378;28;20488;-66
2023/10/22 04:35:08;;;;;;;1.17;0.30;;;;;;;12.14;100.00;99918.59;5004251;28;20037;-66
2023/10/22 04:37:33;;;;;;;3.92;0.50;;;;;;;12.11;100.00;99909.38;5003922;28;20108;-66
2023/10/22 04:39:59;;;;;;;0.65;0.20;;;;;;;12.14;100.00;99916.78;5004746;28;20034;-66
2023/10/22 04:42:25;;;;;;;2.90;0.40;;;;;;;12.07;100.00;99918.50;4988214;28;20057;-66
2023/10/22 04:44:50;;;;;;;2.83;0.50;;;;;;;12.10;100.00;99922.56;4987815;28;20038;-66
2023/10/22 04:47:16;;;;;;;0.68;0.30;;;;;;;12.09;100.00;99934.72;5002760;28;20030;-66
2023/10/22 04:49:44;;;;;;;3.50;0.40;;;;;;;12.11;100.00;99932.75;5000844;28;20084;-66
2023/10/22 04:52:10;;;;;;;0.80;0.40;;;;;;;12.07;100.00;99949.69;4983948;28;20050;-66
2023/10/22 04:54:36;;;;;;;1.45;0.30;;;;;;;12.01;100.00;99955.63;4985406;28;20050;-66
2023/10/22 04:57:02;;;;;;;2.20;0.45;;;;;;;12.04;100.00;99956.06;5002275;28;20030;-66
2023/10/22 04:59:28;;;;;;;1.40;0.30;;;;;;;12.00;100.00;99959.25;5005587;28;20032;-66
2023/10/22 05:01:54;;;;;;;0.65;0.30;;;;;;;11.95;100.00;99957.19;4969704;28;20452;-66
2023/10/22 05:04:19;;;;;;;0.90;0.40;;;;;;;11.87;100.00;99965.88;5004197;28;20034;-66
2023/10/22 05:06:45;;;;;;;2.78;0.32;;;;;;;11.87;100.00;99973.66;5004291;28;20428;-66
2023/10/22 05:09:10;;;;;;;0.95;0.30;;;;;;;11.95;100.00;99977.97;5002819;28;20037;-66
2023/10/22 05:11:36;;;;;;;1.83;0.32;;;;;;;11.92;100.00;99974.94;5002668;28;20041;-66
2023/10/22 05:14:01;;;;;;;1.00;0.28;;;;;;;11.92;100.00;99974.94;4987400;28;20454;-66
2023/10/22 05:16:27;;;;;;;1.45;0.32;;;;;;;11.81;100.00;99979.59;4988671;28;20030;-66
2023/10/22 05:18:53;;;;;;;3.97;0.40;;;;;;;11.96;100.00;99992.59;4984772;28;20045;-66
2023/10/22 05:21:18;;;;;;;2.30;0.30;;;;;;;11.86;100.00;99992.81;4987974;28;20040;-66
2023/10/22 05:23:44;;;;;;;1.67;0.40;;;;;;;11.88;99.12;100001.25;5001177;28;20038;-65
2023/10/22 05:26:11;;;;;;;0.68;0.15;;;;;;;11.88;99.45;100001.25;4998400;28;20034;-66
2023/10/22 05:28:38;;;;;;;0.68;0.20;;;;;;;11.97;97.73;100011.56;5000879;28;20054;-66
2023/10/22 05:31:14;;;;;;;1.65;0.30;;;;;;;11.90;97.70;100015.88;5000004;28;20037;-65
2023/10/22 05:33:41;;;;;;;0.30;0.20;;;;;;;11.76;98.17;100026.09;5002789;28;20053;-66
2023/10/22 05:36:17;;;;;;;0.63;0.28;;;;;;;11.75;98.58;100031.47;4988238;28;20038;-66
2023/10/22 05:38:43;;;;;;;3.65;0.40;;;;;;;11.78;97.90;100042.28;5001844;28;20516;-66
2023/10/22 05:41:15;;;;;;;0.63;0.25;;;;;;;11.67;97.67;100045.34;5000762;28;20026;-66
2023/10/22 05:43:41;;;;;;;1.05;0.40;;;;;;;11.86;96.82;100044.78;4986134;28;20057;-66
2023/10/22 05:46:06;;;;;;;3.05;0.40;;;;;;;11.83;95.40;100049.56;4986961;28;20034;-66
2023/10/22 05:48:32;;;;;;;0.60;0.30;;;;;;;11.70;95.70;100050.19;5002805;28;20089;-66
2023/10/22 05:51:00;;;;;;;0.65;0.20;;;;;;;11.64;96.22;100053.50;4987058;28;20026;-66
2023/10/22 05:53:26;;;;;;;3.85;0.50;;;;;;;11.53;97.14;100056.56;5000655;28;20095;-65
2023/10/22 05:55:56;;;;;;;2.58;0.45;;;;;;;11.56;96.26;100061.41;5001832;28;20424;-66
2023/10/22 05:58:21;;;;;;;2.70;0.28;;;;;;;11.55;96.63;100065.00;4983615;28;20121;-66
2023/10/22 06:00:50;;;;;;;3.50;0.40;;;;;;;11.49;96.75;100064.72;5002222;28;20113;-66
2023/10/22 06:03:15;;;;;;;1.65;0.40;;;;;;;11.56;96.68;100072.56;4984897;28;20061;-66
2023/10/22 06:05:41;;;;;;;1.95;0.47;;;;;;;11.49;96.62;100080.28;5003133;28;20042;-66
2023/10/22 06:08:07;;;;;;;0.95;0.30;;;;;;;11.44;97.17;100082.63;4999983;28;20045;-66
2023/10/22 06:10:39;;;;;;;0.73;0.25;;;;;;;11.48;97.12;100085.66;4972046;28;20022;-66
2023/10/22 06:13:05;;;;;;;1.15;0.30;;;;;;;11.60;97.38;100088.59;5000238;28;20145;-66
2023/10/22 06:15:30;;;;;;;0.73;0.30;;;;;;;11.50;97.27;100089.69;4985367;28;21958;-66
2023/10/22 06:17:56;;;;;;;3.10;0.43;;;;;;;11.38;98.31;100090.31;4984750;28;20029;-66
2023/10/22 06:20:22;;;;;;;1.58;0.30;;;;;;;11.45;98.47;100096.41;5003432;28;20129;-66
2023/10/22 06:22:47;;;;;;;1.52;0.30;;;;;;;11.47;98.52;100097.03;4971106;28;20100;-66
2023/10/22 06:25:14;;;;;;;2.05;0.40;;;;;;;11.38;99.21;100105.91;5001011;28;20052;-66
2023/10/22 06:27:39;;;;;;;0.50;0.30;;;;;;;11.36;98.04;100105.25;4999870;28;20586;-66
2023/10/22 06:30:05;;;;;;;0.77;0.30;;;;;;;11.34;98.73;100108.03;5003451;28;20081;-66
2023/10/22 06:32:31;;;;;;;1.50;0.40;;;;;;;11.40;98.45;100101.34;4984445;28;20488;-66
2023/10/22 06:34:56;;;;;;;9.15;3.50;;;;;;;11.40;97.41;100114.31;4985495;28;20049;-66
2023/10/22 06:37:21;;;;;;;5.88;0.85;;;;;;;11.40;98.04;100120.31;5002243;28;20431;-66
2023/10/22 06:39:47;;;;;;;2.00;0.90;;;;;;;11.35;98.57;100127.81;4986730;28;20026;-66
2023/10/22 06:42:12;;;;;;;1.50;0.40;;;;;;;11.37;98.94;100133.63;4982892;28;20045;-66
2023/10/22 06:44:42;;;;;;;1.25;0.30;;;;;;;11.38;98.66;100134.47;4984652;28;20057;-66
2023/10/22 06:47:07;;;;;;;0.63;0.40;;;;;;;11.37;98.67;100143.22;4984125;28;20124;-66
2023/10/22 06:49:33;;;;;;;1.17;0.30;;;;;;;11.43;97.66;100145.91;5001957;28;20026;-66
2023/10/22 06:51:58;;;;;;;1.75;0.47;;;;;;;11.53;96.87;100147.44;5000950;28;20038;-66
2023/10/22 06:54:24;;;;;;;3.35;0.43;;;;;;;11.47;97.35;100154.13;4985152;28;20034;-66
2023/10/22 06:56:49;;;;;;;0.93;0.40;;;;;;;11.41;98.01;100160.84;4985997;28;20053;-66
2023/10/22 06:59:15;;;;;;;1.50;0.40;;;;;;;11.47;98.27;100159.31;4980441;28;20048;-66
2023/10/22 07:01:40;;;;;;;3.95;0.98;;;;;;;11.54;96.48;100162.81;4968268;28;20041;-69
2023/10/22 07:04:06;;;;;;;1.58;0.35;;;;;;;11.65;96.86;100172.78;4997275;28;20049;-66
2023/10/22 07:06:32;;;;;;;1.20;0.40;;;;;;;11.71;95.69;100176.47;4988278;28;20667;-66
2023/10/22 07:08:57;;;;;;;1.75;0.38;;;;;;;11.62;95.88;100174.94;4996742;28;20038;-66
2023/10/22 07:11:23;;;;;;;2.28;0.70;;;;;;;11.67;96.13;100177.81;5001422;28;20053;-66
2023/10/22 07:13:48;;;;;;;7.53;3.60;;;;;;;11.84;95.12;100179.22;4999288;28;20043;-66
2023/10/22 07:16:14;;;;;;;5.97;3.53;;;;;;;11.73;95.07;100194.47;5002539;28;20042;-66
2023/10/22 07:18:39;;;;;;;5.63;2.67;;;;;;;11.66;96.32;100196.97;5000914;28;20459;-66
2023/10/22 07:21:05;;;;;;;3.95;1.23;;;;;;;11.60;95.90;100192.47;4983054;28;20022;-66
2023/10/22 07:23:31;;;;;;;16.25;6.65;;;;;;;11.64;95.94;100198.91;4980802;28;20042;-66
2023/10/22 07:25:57;;;;;;;3.88;2.28;;;;;;;11.68;96.39;100203.59;5002001;28;20132;-66
2023/10/22 07:28:23;;;;;;;7.57;3.00;;;;;;;11.63;96.47;100212.91;5003515;28;20038;-66
2023/10/22 07:30:48;;;;;;;3.47;1.92;;;;;;;11.64;97.08;100207.53;5000764;28;20735;-66
2023/10/22 07:33:15;;;;;;;3.85;2.25;;;;;;;11.63;96.54;100218.91;5001466;28;20054;-66
2023/10/22 07:35:54;;;;;;;18.55;7.28;;;;;;;11.67;96.86;100222.75;4998547;28;20095;-66
2023/10/22 07:38:20;;;;;;;11.00;5.80;;;;;;;11.66;97.13;100228.16;4998464;28;20034;-66
2023/10/22 07:40:46;;;;;;;13.63;7.82;;;;;;;11.64;97.90;100232.69;5003076;28;20396;-66
2023/10/22 07:43:11;;;;;;;8.93;4.40;;;;;;;11.63;98.13;100238.88;5003089;28;20041;-66
2023/10/22 07:45:40;;;;;;;13.65;5.50;;;;;;;11.66;98.09;100239.31;5003312;28;20495;-66
2023/10/22 07:48:05;;;;;;;13.60;6.72;;;;;;;11.82;97.19;100240.94;4985277;28;20045;-66
2023/10/22 07:50:31;;;;;;;39.30;16.50;;;;;;;11.68;97.49;100242.56;4985168;28;20034;-66
2023/10/22 07:52:56;;;;;;;15.13;6.15;;;;;;;11.79;97.15;100243.94;5000765;28;20488;-66
2023/10/22 07:55:22;;;;;;;12.73;6.78;;;;;;;11.78;97.83;100249.28;4987716;28;20095;-66
2023/10/22 07:57:47;;;;;;;15.13;7.15;;;;;;;11.86;98.62;100244.81;4999614;28;20037;-66
2023/10/22 08:00:14;;;;;;;13.43;5.50;;;;;;;11.85;97.68;100245.00;5000420;28;20068;-66
2023/10/22 08:02:39;;;;;;;42.72;21.52;;;;;;;11.92;97.47;100247.72;4983315;28;20546;-66
2023/10/22 08:05:05;;;;;;;28.20;13.65;;;;;;;11.87;98.00;100250.81;5005713;28;20030;-66
2023/10/22 08:07:31;;;;;;;35.40;14.88;;;;;;;12.02;98.25;100251.66;4973899;28;20119;-66
2023/10/22 08:09:56;;;;;;;6.68;3.35;;;;;;;12.06;98.45;100252.13;4988635;28;20047;-66
2023/10/22 08:12:21;;;;;;;2.00;1.10;;;;;;;12.01;97.91;100251.84;4985625;28;21153;-66
2023/10/22 08:14:47;;;;;;;2.55;1.70;;;;;;;12.08;98.62;100250.94;5000185;28;20476;-66
2023/10/22 08:17:12;;;;;;;10.60;8.65;;;;;;;12.07;99.08;100256.31;4986173;28;20038;-66
2023/10/22 08:19:38;;;;;;;6.00;4.00;;;;;;;12.11;99.19;100256.78;5003442;28;20040;-66
2023/10/22 08:22:04;;;;;;;7.10;4.03;;;;;;;12.17;99.38;100245.69;4999637;28;20045;-66
2023/10/22 08:24:29;;;;;;;8.98;4.85;;;;;;;12.27;99.61;100260.00;5003259;28;20474;-66
2023/10/22 08:26:58;;;;;;;1.92;0.80;;;;;;;12.44;97.57;100255.41;4986297;28;20038;-66
2023/10/22 08:29:23;;;;;;;2.83;1.05;;;;;;;12.57;97.08;100261.78;4973635;28;20431;-66
2023/10/22 08:31:49;;;;;;;10.13;6.30;;;;;;;12.53;97.66;100268.34;4987101;28;20037;-66
2023/10/22 08:34:14;;;;;;;7.28;3.17;;;;;;;12.57;97.29;100261.78;5003709;28;20551;-65
2023/10/22 08:36:40;;;;;;;3.30;1.88;;;;;;;12.70;97.08;100269.72;5000512;28;20034;-66
2023/10/22 08:39:06;;;;;;;2.97;0.90;;;;;;;12.76;97.61;100279.41;4983425;28;20085;-66
2023/10/22 08:41:37;;;;;;;3.75;1.30;;;;;;;12.69;97.62;100294.13;4984190;28;20681;-66
2023/10/22 08:44:03;;;;;;;4.72;0.77;;;;;;;12.73;98.21;100287.56;4986860;28;20771;-66
2023/10/22 08:46:28;;;;;;;3.22;0.70;;;;;;;12.77;98.03;100290.59;4971819;28;20053;-66
2023/10/22 08:48:54;;;;;;;2.05;0.60;;;;;;;12.75;98.24;100290.81;4986618;28;20042;-66
2023/10/22 08:51:22;;;;;;;2.97;0.60;;;;;;;12.85;97.13;100295.72;5004915;28;20018;-66
2023/10/22 08:53:47;;;;;;;2.03;0.63;;;;;;;12.89;97.91;100303.97;5001544;28;20555;-66
2023/10/22 08:56:14;;;;;;;1.05;0.50;;;;;;;12.95;98.43;100305.84;5002839;28;20053;-65
2023/10/22 08:58:40;;;;;;;2.92;0.65;;;;;;;13.03;96.89;100311.75;4985567;28;20062;-66
2023/10/22 09:01:05;;;;;;;2.65;0.70;;;;;;;13.23;96.49;100313.75;5002442;28;20032;-66
2023/10/22 09:03:32;;;;;;;3.22;0.63;;;;;;;13.36;96.89;100321.72;4998738;28;20092;-66
2023/10/22 09:05:58;;;;;;;1.75;0.60;;;;;;;13.51;96.66;100324.25;4988487;28;20072;-66
2023/10/22 09:08:43;;;;;;;1.48;0.60;;;;;;;13.61;95.24;100329.16;5001705;28;20070;-66
2023/10/22 09:11:17;;;;;;;0.88;0.50;;;;;;;13.60;94.04;100323.13;4987099;28;20404;-66
2023/10/22 09:13:43;;;;;;;3.80;1.13;;;;;;;13.56;94.93;100329.72;5001314;28;20599;-66
2023/10/22 09:16:09;;;;;;;0.82;0.40;;;;;;;13.61;95.76;100332.53;4995554;28;20049;-66
2023/10/22 09:18:44;;;;;;;0.82;0.40;;;;;;;13.61;96.08;100344.78;5002447;28;20467;-66
2023/10/22 09:21:10;;;;;;;2.38;0.50;;;;;;;13.68;96.57;100337.03;4970646;28;20512;-66
2023/10/22 09:23:36;;;;;;;1.25;0.30;;;;;;;13.69;95.52;100336.81;5000481;28;20038;-66
2023/10/22 09:26:02;;;;;;;1.20;0.40;;;;;;;13.86;95.55;100341.78;4971909;28;20396;-66
2023/10/22 09:28:29;;;;;;;0.65;0.35;;;;;;;13.70;96.13;100353.28;4997584;28;20034;-66
2023/10/22 09:30:58;;;;;;;2.78;0.50;;;;;;;13.59;95.69;100352.78;5001155;28;20087;-66
2023/10/22 09:33:34;;;;;;;2.92;0.35;;;;;;;13.54;97.21;100354.31;4968301;28;20054;-66
2023/10/22 09:36:11;;;;;;;1.40;0.60;;;;;;;13.67;97.10;100354.44;5001175;28;20044;-66
2023/10/22 09:38:50;;;;;;;0.75;0.50;;;;;;;13.73;94.39;100360.69;4987827;28;20177;-66
2023/10/22 09:41:29;;;;;;;1.30;0.30;;;;;;;13.65;95.22;100363.44;5000700;28;20447;-66
2023/10/22 09:44:02;;;;;;;2.67;0.70;;;;;;;13.62;97.49;100362.81;4997458;28;20030;-66
2023/10/22 09:46:33;;;;;;;0.98;0.45;;;;;;;13.76;97.35;100373.38;4999121;28;20030;-66
2023/10/22 09:49:01;;;;;;;2.28;0.63;;;;;;;13.78;96.47;100372.19;5001666;28;20038;-66
2023/10/22 09:51:31;;;;;;;1.75;0.57;;;;;;;13.78;96.38;100377.38;4989681;28;20030;-66
2023/10/22 09:54:00;;;;;;;1.70;0.75;;;;;;;13.80;94.52;100385.81;4999689;28;20084;-66
2023/10/22 09:56:27;;;;;;;1.13;0.55;;;;;;;13.77;95.00;100382.81;5001703;28;20727;-66
2023/10/22 09:59:03;;;;;;;0.88;0.40;;;;;;;13.76;95.22;100381.97;4986245;28;20045;-66
2023/10/22 10:01:33;;;;;;;1.10;0.50;;;;;;;13.70;95.84;100381.94;5004891;28;20566;-66
2023/10/22 10:04:00;;;;;;;2.92;0.60;;;;;;;13.73;96.92;100384.97;4983492;28;20081;-66
2023/10/22 10:06:27;;;;;;;0.73;0.52;;;;;;;13.67;96.93;100385.69;5003581;28;20029;-66
2023/10/22 10:08:53;;;;;;;2.15;0.50;;;;;;;13.71;96.43;100384.38;4985538;28;20069;-66
2023/10/22 10:11:21;;;;;;;1.92;0.80;;;;;;;13.69;96.70;100388.94;5000700;28;20064;-66
2023/10/22 10:13:46;;;;;;;2.35;0.50;;;;;;;13.88;96.12;100389.28;4985879;28;20540;-66
2023/10/22 10:16:12;;;;;;;4.80;0.50;;;;;;;13.85;96.19;100390.50;4986126;28;20041;-66
2023/10/22 10:19:09;;;;;;;1.02;0.52;;;;;;;13.81;95.77;100395.25;4999487;28;20045;-66
2023/10/22 10:21:34;;;;;;;4.60;0.75;;;;;;;13.86;95.73;100394.69;4972260;28;20107;-66
2023/10/22 10:24:20;;;;;;;1.25;0.32;;;;;;;13.77;95.52;100395.84;4983312;28;20122;-66
2023/10/22 10:26:56;;;;;;;0.70;0.40;;;;;;;13.83;95.89;100395.88;4985219;28;20078;-66
2023/10/22 10:29:27;;;;;;;0.60;0.35;;;;;;;13.88;94.83;100399.72;4980186;28;20037;-66
2023/10/22 10:31:54;;;;;;;1.67;0.45;;;;;;;14.00;94.36;100398.22;4998675;28;20109;-66
2023/10/22 10:34:21;;;;;;;2.33;0.60;;;;;;;14.07;93.86;100395.66;5002007;28;20041;-66
2023/10/22 10:36:49;;;;;;;2.75;0.93;;;;;;;14.10;93.29;100403.91;4985519;28;20565;-66
2023/10/22 10:39:37;;;;;;;2.47;1.02;;;;;;;14.23;93.37;100400.63;4998491;28;20469;-66
2023/10/22 10:42:03;;;;;;;1.23;0.50;;;;;;;14.29;91.68;100404.25;4997325;28;20124;-68
2023/10/22 10:44:29;;;;;;;3.65;0.50;;;;;;;14.32;91.33;100414.31;4986056;28;20412;-68
2023/10/22 10:47:21;;;;;;;3.05;0.65;;;;;;;14.52;92.28;100401.41;4969522;28;20042;-68
2023/10/22 10:50:07;;;;;;;1.10;0.50;;;;;;;14.59;93.24;100405.69;5003071;28;20037;-66
2023/10/22 10:52:42;;;;;;;3.88;0.55;;;;;;;14.63;90.72;100408.72;4967490;28;20042;-66
2023/10/22 10:55:19;;;;;;;1.13;0.40;;;;;;;14.72;88.38;100404.16;4983484;28;20120;-66
2023/10/22 10:57:52;;;;;;;3.80;0.60;;;;;;;14.81;90.15;100417.88;4985398;28;20053;-66
2023/10/22 11:00:28;;;;;;;2.33;0.77;;;;;;;14.74;88.83;100407.38;4982543;28;20686;-66
2023/10/22 11:02:55;;;;;;;2.08;0.70;;;;;;;14.84;90.04;100413.03;4983553;28;20065;-66
2023/10/22 11:05:42;;;;;;;2.97;0.50;;;;;;;14.99;89.49;100411.13;4995353;28;21194;-66
2023/10/22 11:08:18;;;;;;;2.78;0.55;;;;;;;14.96;87.73;100416.75;4985815;28;20052;-66
2023/10/22 11:10:45;;;;;;;1.73;0.50;;;;;;;14.92;89.51;100415.53;4999704;28;20058;-66
2023/10/22 11:13:11;;;;;;;7.03;1.48;;;;;;;15.07;90.28;100419.78;4983055;28;20051;-66
2023/10/22 11:15:37;;;;;;;2.15;0.75;;;;;;;15.14;86.63;100420.63;4983781;28;20045;-66
2023/10/22 11:18:05;;;;;;;5.40;0.60;;;;;;;15.04;86.80;100418.38;4967550;28;20523;-66
2023/10/22 11:20:32;;;;;;;3.25;0.52;;;;;;;15.08;87.65;100430.03;4999464;28;20030;-67
2023/10/22 11:22:57;;;;;;;1.30;0.60;;;;;;;15.18;85.96;100425.28;4999101;28;20111;-66
2023/10/22 11:25:24;;;;;;;3.88;0.50;;;;;;;15.16;84.50;100419.44;5002909;28;20041;-66
2023/10/22 11:27:50;;;;;;;1.25;0.40;;;;;;;15.22;86.33;100425.69;4998574;28;20041;-66